Time;durP1;ratioP1;P1;durP2;ratioP2;P2;SDS_P1;SDS_P2;PMS_P1;PMS_P2;Temp;Humidity;BMP_temperature;BMP_pressure;BME280_temperature;BME280_humidity;BME280_pressure;Samples;Min_cycle;Max_cycle;Signal;HPM_P1;HPM_P2
2021/08/08 00:01:20;;;;;;;8.00;2.15;;;25.90;99.90;;;;;;5029018;28;20487;-71
2021/08/08 00:03:46;;;;;;;5.85;3.70;;;25.90;99.90;;;;;;5030065;28;20030;-70
2021/08/08 00:06:12;;;;;;;9.85;3.30;;;25.90;99.90;;;;;;5031376;28;20025;-70
2021/08/08 00:08:37;;;;;;;7.05;3.03;;;25.90;99.90;;;;;;5030909;28;20215;-69
2021/08/08 00:11:03;;;;;;;5.47;3.05;;;25.90;99.90;;;;;;5031132;28;20392;-69
2021/08/08 00:13:30;;;;;;;9.23;3.20;;;25.90;99.90;;;;;;5031206;28;20032;-69
2021/08/08 00:15:55;;;;;;;6.75;2.80;;;25.90;99.90;;;;;;5029613;28;20420;-70
2021/08/08 00:18:21;;;;;;;6.15;3.55;;;25.90;99.90;;;;;;5029599;28;20121;-70
2021/08/08 00:20:47;;;;;;;7.65;3.17;;;25.90;99.90;;;;;;5029842;28;20056;-71
2021/08/08 00:23:13;;;;;;;5.47;2.80;;;25.90;99.90;;;;;;5029763;28;20112;-71
2021/08/08 00:25:39;;;;;;;9.32;3.45;;;25.80;99.90;;;;;;5029761;28;20433;-71
2021/08/08 00:28:06;;;;;;;8.57;3.08;;;25.80;99.90;;;;;;5029595;28;20033;-71
2021/08/08 00:30:32;;;;;;;8.70;3.72;;;25.80;99.90;;;;;;5030940;28;20022;-71
2021/08/08 00:32:58;;;;;;;10.55;3.15;;;25.80;99.90;;;;;;5031291;28;20021;-71
2021/08/08 00:35:24;;;;;;;3.88;2.40;;;25.80;99.90;;;;;;5029700;28;20095;-71
2021/08/08 00:37:50;;;;;;;7.68;2.80;;;25.80;99.90;;;;;;5030637;28;20420;-71
2021/08/08 00:40:17;;;;;;;7.45;3.63;;;25.80;99.90;;;;;;5030683;28;20045;-71
2021/08/08 00:42:46;;;;;;;7.75;3.00;;;25.80;99.90;;;;;;5030930;28;20061;-71
2021/08/08 00:45:17;;;;;;;6.68;3.10;;;25.80;99.90;;;;;;5031153;28;20104;-71
2021/08/08 00:47:44;;;;;;;7.57;3.25;;;25.80;99.90;;;;;;5030846;28;20047;-70
2021/08/08 00:50:11;;;;;;;7.78;2.65;;;25.90;99.90;;;;;;5029556;28;20030;-71
2021/08/08 00:52:37;;;;;;;12.70;3.78;;;25.80;99.90;;;;;;5029439;28;20025;-70
2021/08/08 00:55:04;;;;;;;7.53;2.97;;;25.80;99.90;;;;;;5032672;28;20024;-68
2021/08/08 00:57:30;;;;;;;8.27;3.40;;;25.80;99.90;;;;;;5035605;28;20101;-70
2021/08/08 00:59:56;;;;;;;8.38;2.90;;;25.80;99.90;;;;;;5035189;28;20025;-71
2021/08/08 01:02:22;;;;;;;6.00;2.85;;;25.80;99.90;;;;;;5034364;28;20048;-69
2021/08/08 01:04:55;;;;;;;8.48;3.00;;;25.80;99.90;;;;;;5030315;28;20022;-71
2021/08/08 01:07:27;;;;;;;7.03;3.00;;;25.80;99.90;;;;;;5030621;28;20092;-71
2021/08/08 01:09:55;;;;;;;8.90;4.13;;;25.80;99.90;;;;;;5028957;28;20491;-71
2021/08/08 01:12:22;;;;;;;10.98;2.92;;;25.80;99.90;;;;;;5028642;28;20057;-71
2021/08/08 01:14:49;;;;;;;11.20;3.67;;;25.80;99.90;;;;;;5030144;28;20472;-70
2021/08/08 01:17:16;;;;;;;13.13;3.72;;;25.80;99.90;;;;;;5028827;28;20034;-69
2021/08/08 01:19:52;;;;;;;5.65;3.03;;;25.80;99.90;;;;;;5030020;28;20049;-71
2021/08/08 01:22:20;;;;;;;6.60;2.92;;;25.80;99.90;;;;;;5030285;28;20045;-71
2021/08/08 01:24:47;;;;;;;7.25;3.33;;;25.80;99.90;;;;;;5030385;28;20026;-71
2021/08/08 01:27:13;;;;;;;12.65;4.10;;;25.80;99.90;;;;;;5030588;28;20025;-71
2021/08/08 01:29:40;;;;;;;6.13;3.25;;;25.80;99.90;;;;;;5030161;28;20077;-70
2021/08/08 01:32:06;;;;;;;8.10;3.38;;;25.70;99.90;;;;;;5028881;28;20392;-70
2021/08/08 01:34:32;;;;;;;6.72;3.60;;;25.80;99.90;;;;;;5029083;28;20025;-70
2021/08/08 01:36:57;;;;;;;10.02;3.20;;;25.80;99.90;;;;;;5029206;28;20083;-70
2021/08/08 01:39:24;;;;;;;7.93;3.20;;;25.70;99.90;;;;;;5030314;28;20029;-71
2021/08/08 01:41:52;;;;;;;11.00;3.13;;;25.70;99.90;;;;;;5030018;28;20030;-68
2021/08/08 01:44:25;;;;;;;12.50;3.88;;;25.80;99.90;;;;;;5030354;28;20022;-70
2021/08/08 01:46:58;;;;;;;11.18;2.83;;;25.70;99.90;;;;;;5029272;28;20108;-70
2021/08/08 01:49:29;;;;;;;12.75;4.18;;;25.70;99.90;;;;;;5028882;28;20048;-71
2021/08/08 01:51:57;;;;;;;6.53;2.75;;;25.70;99.90;;;;;;5028887;28;20026;-71
2021/08/08 01:54:24;;;;;;;17.42;4.25;;;25.80;99.90;;;;;;5030423;28;20534;-70
2021/08/08 01:56:51;;;;;;;10.18;3.72;;;25.70;99.90;;;;;;5028784;28;20431;-70
2021/08/08 01:59:18;;;;;;;9.32;4.50;;;25.70;99.90;;;;;;5029981;28;20510;-70
2021/08/08 02:01:44;;;;;;;8.80;3.38;;;25.60;99.90;;;;;;5028271;28;20033;-70
2021/08/08 02:04:28;;;;;;;7.20;3.92;;;25.70;99.90;;;;;;5028613;28;20395;-70
2021/08/08 02:06:54;;;;;;;10.52;3.47;;;25.60;99.90;;;;;;5029703;28;20021;-70
2021/08/08 02:09:20;;;;;;;7.20;3.33;;;25.60;99.90;;;;;;5028011;28;20407;-70
2021/08/08 02:11:46;;;;;;;8.40;3.17;;;25.60;99.90;;;;;;5028179;28;20033;-70
2021/08/08 02:14:11;;;;;;;9.13;3.40;;;25.60;99.90;;;;;;5029576;28;20080;-70
2021/08/08 02:16:38;;;;;;;6.38;3.38;;;25.50;99.90;;;;;;5029514;28;20026;-71
2021/08/08 02:19:04;;;;;;;16.88;3.90;;;25.50;99.90;;;;;;5029323;28;20049;-70
2021/08/08 02:21:30;;;;;;;15.90;5.03;;;25.50;99.90;;;;;;5029239;28;20072;-70
2021/08/08 02:23:56;;;;;;;11.02;3.30;;;25.50;99.90;;;;;;5030525;28;20017;-70
2021/08/08 02:26:22;;;;;;;8.25;3.53;;;25.50;99.90;;;;;;5033352;28;20025;-70
2021/08/08 02:28:48;;;;;;;11.93;3.88;;;25.50;99.90;;;;;;5031846;28;20018;-70
2021/08/08 02:31:17;;;;;;;7.03;3.60;;;25.50;99.90;;;;;;5033256;28;20476;-70
2021/08/08 02:33:43;;;;;;;10.70;4.03;;;25.50;99.90;;;;;;5033211;28;20041;-70
2021/08/08 02:36:09;;;;;;;15.52;4.07;;;25.50;99.90;;;;;;5033046;28;20033;-70
2021/08/08 02:38:35;;;;;;;12.75;4.15;;;25.40;99.90;;;;;;5033038;28;20364;-70
2021/08/08 02:41:01;;;;;;;12.00;4.38;;;25.40;99.90;;;;;;5032911;28;20041;-70
2021/08/08 02:43:27;;;;;;;12.05;3.78;;;25.40;99.90;;;;;;5032700;28;20025;-69
2021/08/08 02:45:52;;;;;;;7.18;3.08;;;25.40;99.90;;;;;;5031669;28;20044;-70
2021/08/08 02:48:19;;;;;;;12.88;4.32;;;25.40;99.90;;;;;;5032618;28;20392;-70
2021/08/08 02:50:45;;;;;;;20.63;5.22;;;25.40;99.90;;;;;;5032813;28;20030;-70
2021/08/08 02:53:11;;;;;;;9.93;3.85;;;25.40;99.90;;;;;;5031513;28;20037;-70
2021/08/08 02:55:37;;;;;;;15.25;3.35;;;25.40;99.90;;;;;;5033172;28;20151;-70
2021/08/08 02:58:03;;;;;;;8.30;4.05;;;25.40;99.90;;;;;;5032327;28;20072;-70
2021/08/08 03:00:29;;;;;;;12.45;4.10;;;25.40;99.90;;;;;;5032975;28;20139;-70
2021/08/08 03:02:54;;;;;;;14.68;3.92;;;25.40;99.90;;;;;;5032216;28;20018;-70
2021/08/08 03:05:20;;;;;;;12.00;4.50;;;25.40;99.90;;;;;;5032385;28;20049;-70
2021/08/08 03:07:47;;;;;;;10.35;4.00;;;25.30;99.90;;;;;;5030892;28;20234;-70
2021/08/08 03:10:13;;;;;;;12.63;4.15;;;25.30;99.90;;;;;;5030982;28;20400;-70
2021/08/08 03:12:39;;;;;;;10.77;3.45;;;25.30;99.90;;;;;;5032317;28;20026;-70
2021/08/08 03:15:05;;;;;;;7.35;3.35;;;25.30;99.90;;;;;;5032213;28;20104;-70
2021/08/08 03:17:31;;;;;;;7.53;3.25;;;25.30;99.90;;;;;;5030525;28;20034;-69
2021/08/08 03:19:57;;;;;;;6.90;3.55;;;25.30;99.90;;;;;;5030880;28;20135;-69
2021/08/08 03:22:23;;;;;;;9.00;3.42;;;25.30;99.90;;;;;;5031974;28;20132;-70
2021/08/08 03:24:48;;;;;;;14.27;3.85;;;25.30;99.90;;;;;;5031023;28;20028;-70
2021/08/08 03:27:14;;;;;;;10.15;3.75;;;25.20;99.90;;;;;;5032027;28;20021;-70
2021/08/08 03:29:40;;;;;;;9.93;3.90;;;25.30;99.90;;;;;;5030334;28;20048;-69
2021/08/08 03:32:06;;;;;;;12.68;3.88;;;25.30;99.90;;;;;;5031683;28;20029;-69
2021/08/08 03:34:32;;;;;;;10.63;3.20;;;25.30;99.90;;;;;;5031602;28;20430;-70
2021/08/08 03:36:58;;;;;;;8.93;3.85;;;25.30;99.90;;;;;;5031893;28;20021;-70
2021/08/08 03:39:25;;;;;;;9.40;3.97;;;25.30;99.90;;;;;;5030407;28;20029;-70
2021/08/08 03:41:52;;;;;;;7.78;3.55;;;25.30;99.90;;;;;;5031534;28;20049;-70
2021/08/08 03:44:18;;;;;;;6.25;3.67;;;25.30;99.90;;;;;;5030222;28;20025;-70
2021/08/08 03:46:44;;;;;;;10.98;3.35;;;25.30;99.90;;;;;;5029978;28;20031;-70
2021/08/08 03:49:11;;;;;;;6.85;3.42;;;25.20;99.90;;;;;;5030001;28;20069;-70
2021/08/08 03:51:37;;;;;;;9.05;4.03;;;25.30;99.90;;;;;;5031523;28;20024;-70
2021/08/08 03:54:03;;;;;;;9.20;3.10;;;25.30;99.90;;;;;;5031765;28;20101;-70
2021/08/08 03:56:29;;;;;;;7.88;3.33;;;25.30;99.90;;;;;;5030282;28;20462;-71
2021/08/08 03:58:55;;;;;;;19.40;4.25;;;25.30;99.90;;;;;;5031510;28;20026;-70
2021/08/08 04:01:20;;;;;;;5.88;3.60;;;25.30;99.90;;;;;;5030004;28;20036;-70
2021/08/08 04:03:46;;;;;;;8.60;3.38;;;25.20;99.90;;;;;;5030371;28;20018;-70
2021/08/08 04:06:12;;;;;;;5.75;3.17;;;25.20;99.90;;;;;;5031428;28;20102;-70
2021/08/08 04:08:38;;;;;;;11.30;3.60;;;25.20;99.90;;;;;;5030152;28;20060;-70
2021/08/08 04:11:04;;;;;;;14.55;3.40;;;25.20;99.90;;;;;;5029932;28;20033;-70
2021/08/08 04:13:29;;;;;;;12.35;2.90;;;25.30;99.90;;;;;;5030971;28;20045;-70
2021/08/08 04:15:55;;;;;;;6.53;2.92;;;25.30;99.90;;;;;;5031051;28;20025;-70
2021/08/08 04:18:21;;;;;;;7.60;3.50;;;25.30;99.90;;;;;;5030899;28;20155;-70
2021/08/08 04:20:47;;;;;;;8.98;2.83;;;25.30;99.90;;;;;;5030870;28;20351;-70
2021/08/08 04:23:13;;;;;;;7.75;3.55;;;25.30;99.90;;;;;;5029691;28;20504;-70
2021/08/08 04:25:39;;;;;;;10.43;3.67;;;25.30;99.90;;;;;;5029392;28;20025;-70
2021/08/08 04:28:08;;;;;;;7.97;3.40;;;25.30;99.90;;;;;;5029442;28;20120;-69
2021/08/08 04:30:35;;;;;;;8.23;3.45;;;25.30;99.90;;;;;;5031473;28;20021;-70
2021/08/08 04:33:02;;;;;;;8.02;2.90;;;25.30;99.90;;;;;;5030104;28;20022;-69
2021/08/08 04:35:29;;;;;;;10.93;3.67;;;25.30;99.90;;;;;;5031249;28;20509;-69
2021/08/08 04:37:56;;;;;;;10.90;4.57;;;25.40;99.90;;;;;;5031112;28;20025;-70
2021/08/08 04:40:22;;;;;;;7.22;3.08;;;25.40;99.90;;;;;;5029772;28;20447;-70
2021/08/08 04:42:47;;;;;;;9.80;3.55;;;25.30;99.90;;;;;;5031124;28;20029;-70
2021/08/08 04:45:13;;;;;;;5.30;2.88;;;25.40;99.90;;;;;;5030084;28;20395;-71
2021/08/08 04:47:39;;;;;;;6.90;2.78;;;25.40;99.90;;;;;;5028936;28;20026;-70
2021/08/08 04:50:07;;;;;;;17.00;4.00;;;25.40;99.90;;;;;;5029420;28;20049;-70
2021/08/08 04:52:37;;;;;;;7.82;4.38;;;25.40;99.90;;;;;;5030808;28;20029;-71
2021/08/08 04:55:04;;;;;;;9.98;3.35;;;25.50;99.90;;;;;;5029894;28;20081;-72
2021/08/08 04:57:30;;;;;;;5.78;3.35;;;25.50;99.90;;;;;;5031002;28;20427;-69
2021/08/08 04:59:56;;;;;;;10.45;3.67;;;25.50;99.90;;;;;;5029494;28;20099;-70
2021/08/08 05:02:22;;;;;;;6.10;3.30;;;25.50;99.90;;;;;;5029627;28;20056;-70
2021/08/08 05:04:49;;;;;;;5.03;3.65;;;25.50;99.90;;;;;;5031681;28;20064;-72
2021/08/08 05:07:15;;;;;;;18.25;4.30;;;25.60;99.90;;;;;;5029565;28;20264;-72
2021/08/08 05:09:40;;;;;;;10.25;3.85;;;25.60;99.90;;;;;;5030557;28;20028;-70
2021/08/08 05:12:10;;;;;;;10.55;3.85;;;25.70;99.90;;;;;;5030466;28;20025;-71
2021/08/08 05:14:38;;;;;;;7.72;3.85;;;25.70;99.90;;;;;;5033908;28;20082;-71
2021/08/08 05:17:05;;;;;;;6.05;3.72;;;25.80;99.90;;;;;;5034476;28;20025;-71
2021/08/08 05:19:31;;;;;;;7.20;3.92;;;25.80;99.90;;;;;;5038092;28;20025;-72
2021/08/08 05:21:56;;;;;;;6.78;3.33;;;25.80;99.90;;;;;;5042960;28;20143;-72
2021/08/08 05:24:22;;;;;;;6.55;3.58;;;25.80;99.90;;;;;;5043362;28;20026;-71
2021/08/08 05:26:48;;;;;;;6.50;3.30;;;25.80;99.90;;;;;;5044173;28;20017;-69
2021/08/08 05:29:14;;;;;;;11.15;4.68;;;25.80;99.90;;;;;;5039297;28;20061;-70
2021/08/08 05:31:40;;;;;;;8.35;4.50;;;25.90;99.90;;;;;;5030838;28;20076;-71
2021/08/08 05:34:07;;;;;;;8.60;4.75;;;25.90;99.90;;;;;;5030950;28;20026;-71
2021/08/08 05:36:33;;;;;;;12.07;4.30;;;25.90;99.90;;;;;;5030675;28;20025;-71
2021/08/08 05:39:00;;;;;;;8.52;3.28;;;26.00;99.90;;;;;;5030070;28;20037;-71
2021/08/08 05:41:26;;;;;;;6.50;4.28;;;26.00;99.90;;;;;;5029487;28;20048;-70
2021/08/08 05:43:53;;;;;;;8.82;4.75;;;26.00;99.90;;;;;;5028562;28;20072;-71
2021/08/08 05:46:19;;;;;;;10.15;5.03;;;26.10;99.90;;;;;;5028467;28;20084;-70
2021/08/08 05:48:44;;;;;;;6.50;3.20;;;26.20;99.90;;;;;;5028464;28;20029;-70
2021/08/08 05:51:10;;;;;;;5.70;3.63;;;26.30;99.90;;;;;;5030493;28;20029;-70
2021/08/08 05:53:36;;;;;;;10.90;4.45;;;26.40;99.90;;;;;;5028786;28;20039;-70
2021/08/08 05:56:02;;;;;;;7.45;3.53;;;26.50;99.90;;;;;;5028869;28;20063;-70
2021/08/08 05:58:27;;;;;;;12.38;4.70;;;26.60;99.90;;;;;;5031324;28;20057;-70
2021/08/08 06:00:53;;;;;;;6.90;3.58;;;26.60;99.90;;;;;;5032560;28;20029;-70
2021/08/08 06:03:19;;;;;;;10.57;3.85;;;26.60;99.90;;;;;;5033705;28;20021;-70
2021/08/08 06:05:45;;;;;;;10.65;3.47;;;26.70;99.90;;;;;;5032897;28;20018;-70
2021/08/08 06:08:11;;;;;;;5.30;3.42;;;26.70;99.90;;;;;;5033520;28;20048;-70
2021/08/08 06:10:37;;;;;;;7.82;3.47;;;26.70;99.90;;;;;;5032620;28;20029;-70
2021/08/08 06:13:03;;;;;;;8.23;4.47;;;26.70;99.90;;;;;;5033592;28;20436;-70
2021/08/08 06:15:29;;;;;;;12.70;4.55;;;26.70;99.90;;;;;;5032213;28;20433;-71
2021/08/08 06:17:55;;;;;;;11.23;4.35;;;26.70;99.90;;;;;;5033876;28;20013;-70
2021/08/08 06:20:21;;;;;;;9.75;5.30;;;26.80;99.90;;;;;;5032151;28;20041;-70
2021/08/08 06:22:47;;;;;;;10.77;4.50;;;26.90;99.90;;;;;;5031907;28;20025;-70
2021/08/08 06:25:13;;;;;;;7.68;3.85;;;26.90;99.90;;;;;;5034159;28;20029;-70
2021/08/08 06:27:39;;;;;;;10.30;4.35;;;26.90;99.90;;;;;;5031918;28;20108;-71
2021/08/08 06:30:05;;;;;;;6.60;3.03;;;27.00;99.90;;;;;;5033576;28;20396;-71
2021/08/08 06:32:31;;;;;;;5.82;3.00;;;27.10;99.90;;;;;;5032136;28;20518;-69
2021/08/08 06:34:56;;;;;;;8.50;3.40;;;27.00;99.90;;;;;;5033597;28;20034;-70
2021/08/08 06:37:22;;;;;;;13.02;4.57;;;27.20;99.90;;;;;;5032608;28;20036;-70
2021/08/08 06:39:48;;;;;;;10.73;3.60;;;27.20;99.90;;;;;;5031702;28;20061;-72
2021/08/08 06:42:13;;;;;;;8.10;3.42;;;27.30;99.90;;;;;;5031972;28;20061;-70
2021/08/08 06:44:39;;;;;;;10.82;4.05;;;27.50;99.90;;;;;;5032431;28;20033;-70
2021/08/08 06:47:05;;;;;;;5.88;3.80;;;27.60;99.90;;;;;;5032442;28;20033;-69
2021/08/08 06:49:31;;;;;;;13.63;4.03;;;27.70;99.90;;;;;;5033626;28;20022;-70
2021/08/08 06:51:57;;;;;;;10.43;4.28;;;27.60;99.90;;;;;;5033422;28;20438;-69
2021/08/08 06:54:23;;;;;;;12.30;3.97;;;27.50;99.90;;;;;;5034029;28;20617;-70
2021/08/08 06:56:49;;;;;;;11.38;3.92;;;27.40;99.90;;;;;;5032330;28;20025;-72
2021/08/08 06:59:14;;;;;;;6.78;3.85;;;27.40;99.90;;;;;;5031688;28;20087;-69
2021/08/08 07:01:40;;;;;;;6.03;4.03;;;27.50;99.90;;;;;;5033696;28;20032;-70
2021/08/08 07:04:06;;;;;;;12.85;4.95;;;27.50;99.90;;;;;;5033422;28;20024;-69
2021/08/08 07:06:32;;;;;;;11.32;5.65;;;27.60;99.90;;;;;;5033213;28;20021;-70
2021/08/08 07:08:57;;;;;;;11.75;6.32;;;27.60;99.90;;;;;;5031198;28;20057;-70
2021/08/08 07:11:23;;;;;;;9.05;4.68;;;27.70;99.90;;;;;;5032323;28;20026;-70
2021/08/08 07:13:49;;;;;;;6.57;3.65;;;27.80;99.90;;;;;;5031463;28;20126;-71
2021/08/08 07:16:15;;;;;;;11.20;4.38;;;27.80;99.90;;;;;;5032857;28;20103;-71
2021/08/08 07:18:43;;;;;;;11.13;5.00;;;27.90;99.90;;;;;;5031102;28;20277;-70
2021/08/08 07:21:09;;;;;;;8.38;4.45;;;27.80;99.90;;;;;;5032394;28;20535;-70
2021/08/08 07:23:35;;;;;;;9.45;4.07;;;27.80;99.90;;;;;;5032205;28;20112;-70
2021/08/08 07:26:00;;;;;;;12.40;3.70;;;27.80;99.90;;;;;;5031579;28;20261;-70
2021/08/08 07:28:27;;;;;;;17.25;4.00;;;27.90;99.90;;;;;;5032360;28;20116;-72
2021/08/08 07:30:53;;;;;;;9.43;4.10;;;27.90;99.90;;;;;;5031040;28;20022;-70
2021/08/08 07:33:19;;;;;;;11.02;5.63;;;27.90;99.90;;;;;;5030758;28;20427;-70
2021/08/08 07:35:45;;;;;;;12.45;6.15;;;28.00;99.90;;;;;;5031407;28;20072;-70
2021/08/08 07:38:11;;;;;;;11.25;4.80;;;28.10;99.90;;;;;;5032098;28;20022;-70
2021/08/08 07:40:37;;;;;;;6.60;3.45;;;28.10;99.90;;;;;;5030369;28;20028;-70
2021/08/08 07:43:03;;;;;;;9.65;3.90;;;28.20;99.90;;;;;;5031081;28;20065;-71
2021/08/08 07:45:29;;;;;;;6.93;4.03;;;28.30;99.90;;;;;;5032192;28;20025;-71
2021/08/08 07:47:55;;;;;;;7.80;3.25;;;28.50;99.90;;;;;;5031784;28;20029;-69
2021/08/08 07:50:21;;;;;;;9.05;3.78;;;28.60;99.90;;;;;;5030992;28;20031;-70
2021/08/08 07:52:46;;;;;;;8.82;4.00;;;28.70;99.90;;;;;;5030884;28;20120;-70
2021/08/08 07:55:12;;;;;;;8.55;3.72;;;28.80;99.90;;;;;;5030408;28;20036;-70
2021/08/08 07:57:38;;;;;;;13.10;4.63;;;28.70;99.90;;;;;;5031467;28;20021;-71
2021/08/08 08:00:05;;;;;;;10.75;4.82;;;28.80;99.90;;;;;;5030481;28;20075;-71
2021/08/08 08:02:31;;;;;;;9.05;4.22;;;28.90;99.90;;;;;;5031337;28;20514;-71
2021/08/08 08:04:57;;;;;;;8.60;4.40;;;29.00;99.90;;;;;;5031698;28;20029;-70
2021/08/08 08:07:23;;;;;;;8.73;3.47;;;29.00;99.90;;;;;;5031977;28;20056;-69
2021/08/08 08:09:48;;;;;;;10.60;4.35;;;28.90;99.90;;;;;;5031622;28;20056;-72
2021/08/08 08:12:14;;;;;;;9.20;4.18;;;29.00;99.90;;;;;;5031620;28;20100;-70
2021/08/08 08:14:40;;;;;;;13.07;4.93;;;29.10;99.90;;;;;;5030219;28;20566;-69
2021/08/08 08:17:06;;;;;;;11.07;4.57;;;29.30;99.90;;;;;;5030051;28;20100;-70
2021/08/08 08:19:31;;;;;;;12.20;4.85;;;29.30;99.90;;;;;;5031488;28;20529;-69
2021/08/08 08:21:57;;;;;;;12.57;4.55;;;29.40;99.90;;;;;;5029465;28;20117;-70
2021/08/08 08:24:23;;;;;;;10.77;4.43;;;29.50;99.90;;;;;;5031335;28;20063;-70
2021/08/08 08:26:49;;;;;;;12.18;4.50;;;29.50;99.90;;;;;;5031277;28;20094;-70
2021/08/08 08:29:14;;;;;;;10.43;4.63;;;29.70;99.90;;;;;;5031238;28;20068;-70
2021/08/08 08:31:40;;;;;;;11.93;3.60;;;29.70;99.90;;;;;;5031227;28;20069;-70
2021/08/08 08:34:06;;;;;;;9.95;4.88;;;29.80;99.90;;;;;;5031882;28;20045;-70
2021/08/08 08:36:32;;;;;;;7.53;4.60;;;29.60;99.90;;;;;;5031954;28;20550;-70
2021/08/08 08:38:58;;;;;;;11.63;4.20;;;29.70;99.90;;;;;;5030889;28;20116;-70
2021/08/08 08:41:30;;;;;;;11.45;4.25;;;29.50;99.90;;;;;;5029857;28;20032;-70
2021/08/08 08:44:00;;;;;;;11.80;4.45;;;29.50;99.90;;;;;;5031125;28;20048;-69
2021/08/08 08:46:26;;;;;;;9.50;3.92;;;30.00;99.90;;;;;;5031080;28;20049;-69
2021/08/08 08:48:54;;;;;;;13.57;4.13;;;30.40;99.90;;;;;;5030861;28;20463;-70
2021/08/08 08:51:33;;;;;;;10.68;4.07;;;30.90;99.90;;;;;;5029873;28;20495;-70
2021/08/08 08:54:00;;;;;;;11.95;4.63;;;31.20;99.90;;;;;;5031416;28;20037;-70
2021/08/08 08:56:28;;;;;;;12.07;5.38;;;31.10;99.90;;;;;;5031863;28;20022;-70
2021/08/08 08:58:54;;;;;;;7.47;4.03;;;31.10;99.90;;;;;;5032018;28;20025;-70
2021/08/08 09:01:20;;;;;;;13.23;3.83;;;31.30;99.90;;;;;;5031794;28;20037;-69
2021/08/08 09:03:46;;;;;;;10.40;5.13;;;31.50;99.90;;;;;;5030952;28;20385;-70
2021/08/08 09:06:13;;;;;;;6.72;3.60;;;31.70;99.90;;;;;;5033013;28;20022;-70
2021/08/08 09:08:39;;;;;;;10.10;4.75;;;31.90;99.90;;;;;;5031150;28;20025;-71
2021/08/08 09:11:07;;;;;;;7.97;3.63;;;31.80;99.90;;;;;;5032318;28;20026;-70
2021/08/08 09:13:50;;;;;;;7.43;4.40;;;31.70;99.90;;;;;;5031831;28;20438;-71
2021/08/08 09:16:17;;;;;;;8.88;4.30;;;31.20;99.90;;;;;;5032532;28;20028;-71
2021/08/08 09:18:55;;;;;;;11.15;3.95;;;31.20;99.90;;;;;;5032001;28;20026;-71
2021/08/08 09:21:22;;;;;;;13.05;4.13;;;31.20;99.90;;;;;;5031723;28;20392;-70
2021/08/08 09:23:56;;;;;;;10.55;4.75;;;31.30;99.90;;;;;;5030763;28;20017;-71
2021/08/08 09:26:38;;;;;;;13.32;4.95;;;31.50;99.90;;;;;;5030551;28;20025;-71
2021/08/08 09:29:03;;;;;;;;;;;31.70;99.90;;;;;;5031130;28;20095;-70
2021/08/08 09:31:44;;;;;;;8.52;4.10;;;31.60;99.90;;;;;;5030692;28;19905;-71
2021/08/08 09:34:25;;;;;;;10.10;5.13;;;31.80;99.90;;;;;;5030670;28;20083;-70
2021/08/08 09:36:51;;;;;;;14.07;4.10;;;31.90;99.90;;;;;;5030732;28;20456;-71
2021/08/08 09:39:50;;;;;;;16.75;4.55;;;32.00;99.90;;;;;;5030973;28;20030;-70
2021/08/08 09:42:21;;;;;;;12.45;5.13;;;32.10;99.90;;;;;;5026655;28;20043;-70
2021/08/08 09:44:52;;;;;;;7.40;3.95;;;32.10;99.90;;;;;;5030213;28;20407;-71
2021/08/08 09:47:20;;;;;;;8.25;4.30;;;32.30;99.90;;;;;;5030119;28;20021;-71
2021/08/08 09:50:05;;;;;;;10.07;4.35;;;32.30;99.90;;;;;;5028861;28;20032;-70
2021/08/08 09:52:32;;;;;;;10.77;4.35;;;32.30;99.90;;;;;;5030404;28;20029;-70
2021/08/08 09:54:58;;;;;;;9.55;4.45;;;32.10;99.90;;;;;;5030213;28;20102;-71
2021/08/08 09:57:24;;;;;;;11.02;4.35;;;31.70;99.90;;;;;;5029115;28;20071;-71
2021/08/08 09:59:51;;;;;;;8.52;3.78;;;31.50;99.90;;;;;;5031825;28;20039;-73
2021/08/08 10:02:19;;;;;;;15.55;4.60;;;31.20;99.90;;;;;;5032804;28;20423;-72
2021/08/08 10:04:49;;;;;;;16.05;5.88;;;30.90;99.90;;;;;;5029659;28;20022;-69
2021/08/08 10:07:17;;;;;;;11.52;4.70;;;30.60;99.90;;;;;;5029242;28;20052;-70
2021/08/08 10:09:44;;;;;;;6.60;4.70;;;30.60;99.90;;;;;;5030097;28;20104;-69
2021/08/08 10:12:49;;;;;;;25.08;5.07;;;30.70;99.90;;;;;;5028845;28;20078;-70
2021/08/08 10:15:15;;;;;;;10.20;4.10;;;30.50;99.90;;;;;;5029800;28;20033;-73
2021/08/08 10:17:44;;;;;;;13.73;4.57;;;30.60;99.90;;;;;;5030223;28;20555;-71
2021/08/08 10:20:11;;;;;;;12.85;4.38;;;30.30;99.90;;;;;;5030435;28;20476;-70
2021/08/08 10:22:42;;;;;;;10.60;4.70;;;30.50;99.90;;;;;;5029235;28;20116;-73
2021/08/08 10:25:08;;;;;;;12.97;4.97;;;30.40;99.90;;;;;;5029270;28;20127;-70
2021/08/08 10:27:36;;;;;;;15.15;5.80;;;30.20;99.90;;;;;;5029070;28;20290;-72
2021/08/08 10:30:04;;;;;;;10.50;5.03;;;30.00;99.90;;;;;;5031905;28;20041;-71
2021/08/08 10:32:30;;;;;;;10.32;5.15;;;29.80;99.90;;;;;;5033604;28;20026;-70
2021/08/08 10:34:56;;;;;;;9.18;4.18;;;29.60;99.90;;;;;;5030709;28;20176;-71
2021/08/08 10:37:24;;;;;;;9.82;3.88;;;29.60;99.90;;;;;;5030390;28;20033;-71
2021/08/08 10:39:51;;;;;;;7.95;3.95;;;29.70;99.90;;;;;;5030121;28;20033;-71
2021/08/08 10:42:19;;;;;;;13.82;5.30;;;29.60;99.90;;;;;;5028954;28;20025;-71
2021/08/08 10:44:53;;;;;;;13.05;5.13;;;29.50;99.90;;;;;;5029112;28;20032;-70
2021/08/08 10:47:30;;;;;;;12.90;5.30;;;29.70;99.90;;;;;;5032664;28;20553;-71
2021/08/08 10:50:12;;;;;;;15.32;5.32;;;29.70;99.90;;;;;;5032593;28;20368;-73
2021/08/08 10:52:45;;;;;;;12.25;4.85;;;29.70;99.90;;;;;;5033356;28;20550;-71
2021/08/08 10:55:27;;;;;;;11.52;4.97;;;29.60;99.90;;;;;;5034575;28;20034;-71
2021/08/08 10:57:54;;;;;;;16.38;4.80;;;29.50;99.90;;;;;;5032921;28;20026;-69
2021/08/08 11:00:20;;;;;;;11.50;4.72;;;29.50;99.90;;;;;;5034025;28;20028;-72
2021/08/08 11:02:47;;;;;;;9.05;6.03;;;29.60;99.90;;;;;;5035018;28;20396;-71
2021/08/08 11:05:15;;;;;;;11.50;4.45;;;29.80;99.90;;;;;;5035083;28;20062;-71
2021/08/08 11:07:42;;;;;;;7.50;3.80;;;29.90;99.90;;;;;;5033247;28;20022;-73
2021/08/08 11:10:10;;;;;;;14.43;4.65;;;29.90;99.90;;;;;;5034580;28;20131;-69
2021/08/08 11:12:40;;;;;;;11.52;3.83;;;29.60;99.90;;;;;;5033050;28;20514;-70
2021/08/08 11:15:09;;;;;;;13.63;4.10;;;29.70;99.90;;;;;;5033481;28;20029;-72
2021/08/08 11:17:36;;;;;;;10.07;4.35;;;29.60;99.90;;;;;;5034254;28;20018;-71
2021/08/08 11:20:03;;;;;;;10.45;3.88;;;29.80;99.90;;;;;;5032040;28;20061;-71
2021/08/08 11:22:29;;;;;;;10.90;4.32;;;29.90;99.90;;;;;;5033484;28;20445;-70
2021/08/08 11:24:59;;;;;;;9.82;3.90;;;29.90;99.90;;;;;;5032184;28;20076;-72
2021/08/08 11:27:39;;;;;;;11.02;4.60;;;30.00;99.90;;;;;;5031763;28;20072;-70
2021/08/08 11:30:13;;;;;;;6.97;4.15;;;30.10;99.90;;;;;;5033180;28;20045;-71
2021/08/08 11:32:41;;;;;;;12.07;4.85;;;30.20;99.90;;;;;;5033058;28;20026;-70
2021/08/08 11:35:08;;;;;;;10.48;3.95;;;30.20;99.90;;;;;;5033169;28;20022;-69
2021/08/08 11:37:39;;;;;;;14.07;4.57;;;30.00;99.90;;;;;;5033032;28;20032;-71
2021/08/08 11:40:14;;;;;;;9.10;4.22;;;29.80;99.90;;;;;;5032064;28;20029;-71
2021/08/08 11:42:40;;;;;;;9.85;5.10;;;29.70;99.90;;;;;;5032066;28;20030;-71
2021/08/08 11:45:07;;;;;;;9.90;5.32;;;29.70;99.90;;;;;;5032886;28;20029;-71
2021/08/08 11:47:33;;;;;;;9.60;4.53;;;29.70;99.90;;;;;;5031247;28;20080;-71
2021/08/08 11:49:58;;;;;;;12.05;5.88;;;29.60;99.90;;;;;;5031498;28;20022;-71
2021/08/08 11:52:24;;;;;;;10.65;5.30;;;29.60;99.90;;;;;;5031165;28;20029;-71
2021/08/08 11:55:05;;;;;;;7.65;5.30;;;29.70;99.90;;;;;;5030824;28;20030;-71
2021/08/08 11:57:33;;;;;;;9.95;4.70;;;29.80;99.90;;;;;;5031929;28;20113;-70
2021/08/08 11:59:59;;;;;;;8.68;4.18;;;30.00;99.90;;;;;;5031938;28;20029;-71
2021/08/08 12:02:27;;;;;;;9.85;5.20;;;30.10;99.90;;;;;;5030355;28;20021;-71
2021/08/08 12:04:54;;;;;;;10.38;4.63;;;30.10;99.90;;;;;;5032131;28;20120;-71
2021/08/08 12:07:24;;;;;;;12.10;4.78;;;30.00;99.90;;;;;;5032513;28;20438;-71
2021/08/08 12:09:51;;;;;;;8.57;4.85;;;30.00;99.90;;;;;;5031993;28;20032;-71
2021/08/08 12:12:18;;;;;;;7.53;3.70;;;30.00;99.90;;;;;;5031727;28;20476;-71
2021/08/08 12:14:46;;;;;;;9.88;4.55;;;29.90;99.90;;;;;;5030504;28;20034;-70
2021/08/08 12:17:17;;;;;;;12.15;4.57;;;29.90;99.90;;;;;;5031863;28;20369;-71
2021/08/08 12:19:48;;;;;;;10.73;5.40;;;30.00;99.90;;;;;;5031476;28;20033;-70
2021/08/08 12:22:27;;;;;;;20.30;4.55;;;30.00;99.90;;;;;;5031272;28;20056;-70
2021/08/08 12:25:20;;;;;;;8.80;4.05;;;30.10;99.90;;;;;;5031710;28;20144;-72
2021/08/08 12:27:46;;;;;;;9.63;4.80;;;30.10;99.90;;;;;;5028929;28;20029;-72
2021/08/08 12:30:15;;;;;;;12.73;4.55;;;29.80;99.90;;;;;;5033250;28;20044;-71
2021/08/08 12:32:42;;;;;;;15.32;4.43;;;29.70;99.90;;;;;;5032886;28;20032;-71
2021/08/08 12:35:13;;;;;;;9.40;4.53;;;29.90;99.90;;;;;;5033633;28;20176;-70
2021/08/08 12:37:40;;;;;;;15.73;4.82;;;30.00;99.90;;;;;;5032145;28;20095;-70
2021/08/08 12:40:18;;;;;;;14.55;5.38;;;30.20;99.90;;;;;;5033342;28;20049;-72
2021/08/08 12:42:45;;;;;;;13.20;5.13;;;30.40;99.90;;;;;;5031416;28;20034;-71
2021/08/08 12:45:13;;;;;;;11.43;4.82;;;30.60;99.90;;;;;;5031257;28;20510;-70